Melilla, Spain
Current Conditions -  °F | °C
As of 7:00 PM on Sunday 21 Dec 2014 (Local Time) from GEML Reporting Station
Broken Clouds Broken Clouds  
Wind Chill: 61°   Ceiling: 3300
Heat Index: 61°   Visibility: 6mi
Dew Point: 52°   Wind: 8mph
Humidity: 72%   Direction: 80°E
Pressure: 30.42"   Gusts: NA
Location:  35.29°N, 2.94°W
Report Text: GEML 211800Z 08007KT 9999 FEW012 BKN033 16/11 Q1030
Loading
Personal Weather Stations






























Interactive Weather Map New forecast layout! Learn more

10-Day Weather Forecast

Advertisements
Track Severe Weather on mobile